sensor_id;sensor_type;location;lat;lon;timestamp;P1;durP1;ratioP1;P2;durP2;ratioP2
4971;SDS011;2501;51.214;6.768;2023-09-08T00:00:22;6.25;;;4.82;;
4971;SDS011;2501;51.214;6.768;2023-09-08T00:02:50;7.40;;;5.70;;
4971;SDS011;2501;51.214;6.768;2023-09-08T00:05:21;6.53;;;5.32;;
4971;SDS011;2501;51.214;6.768;2023-09-08T00:07:49;7.83;;;4.70;;
4971;SDS011;2501;51.214;6.768;2023-09-08T00:10:18;5.40;;;4.90;;
4971;SDS011;2501;51.214;6.768;2023-09-08T00:12:46;6.65;;;5.30;;
4971;SDS011;2501;51.214;6.768;2023-09-08T00:15:14;7.20;;;6.10;;
4971;SDS011;2501;51.214;6.768;2023-09-08T00:17:46;6.00;;;5.40;;
4971;SDS011;2501;51.214;6.768;2023-09-08T00:20:15;6.20;;;5.60;;
4971;SDS011;2501;51.214;6.768;2023-09-08T00:22:46;8.35;;;5.60;;
4971;SDS011;2501;51.214;6.768;2023-09-08T00:25:15;7.07;;;6.00;;
4971;SDS011;2501;51.214;6.768;2023-09-08T00:27:43;10.00;;;5.20;;
4971;SDS011;2501;51.214;6.768;2023-09-08T00:30:12;6.28;;;5.68;;
4971;SDS011;2501;51.214;6.768;2023-09-08T00:32:41;8.88;;;5.35;;
4971;SDS011;2501;51.214;6.768;2023-09-08T00:35:10;5.88;;;5.30;;
4971;SDS011;2501;51.214;6.768;2023-09-08T00:37:39;8.10;;;5.35;;
4971;SDS011;2501;51.214;6.768;2023-09-08T00:40:11;6.65;;;5.30;;
4971;SDS011;2501;51.214;6.768;2023-09-08T00:42:39;7.65;;;6.20;;
4971;SDS011;2501;51.214;6.768;2023-09-08T00:45:08;8.52;;;5.50;;
4971;SDS011;2501;51.214;6.768;2023-09-08T00:47:37;5.60;;;5.10;;
4971;SDS011;2501;51.214;6.768;2023-09-08T00:50:06;7.55;;;5.22;;
4971;SDS011;2501;51.214;6.768;2023-09-08T00:52:35;6.85;;;5.40;;
4971;SDS011;2501;51.214;6.768;2023-09-08T00:55:03;7.50;;;5.65;;
4971;SDS011;2501;51.214;6.768;2023-09-08T00:57:35;9.18;;;6.10;;
4971;SDS011;2501;51.214;6.768;2023-09-08T01:00:04;5.88;;;5.38;;
4971;SDS011;2501;51.214;6.768;2023-09-08T01:02:33;6.97;;;5.30;;
4971;SDS011;2501;51.214;6.768;2023-09-08T01:05:02;13.48;;;5.85;;
4971;SDS011;2501;51.214;6.768;2023-09-08T01:07:30;7.37;;;6.40;;
4971;SDS011;2501;51.214;6.768;2023-09-08T01:10:00;6.78;;;6.03;;
4971;SDS011;2501;51.214;6.768;2023-09-08T01:12:31;13.15;;;6.00;;
4971;SDS011;2501;51.214;6.768;2023-09-08T01:15:03;6.57;;;5.97;;
4971;SDS011;2501;51.214;6.768;2023-09-08T01:17:34;9.37;;;6.20;;
4971;SDS011;2501;51.214;6.768;2023-09-08T01:20:04;7.80;;;5.47;;
4971;SDS011;2501;51.214;6.768;2023-09-08T01:25:34;6.53;;;5.93;;
4971;SDS011;2501;51.214;6.768;2023-09-08T01:28:07;9.88;;;6.35;;
4971;SDS011;2501;51.214;6.768;2023-09-08T01:30:38;6.85;;;5.40;;
4971;SDS011;2501;51.214;6.768;2023-09-08T01:33:07;9.15;;;5.85;;
4971;SDS011;2501;51.214;6.768;2023-09-08T01:35:36;9.97;;;6.80;;
4971;SDS011;2501;51.214;6.768;2023-09-08T01:38:04;8.23;;;6.30;;
4971;SDS011;2501;51.214;6.768;2023-09-08T01:40:36;5.90;;;5.40;;
4971;SDS011;2501;51.214;6.768;2023-09-08T01:43:04;9.52;;;5.63;;
4971;SDS011;2501;51.214;6.768;2023-09-08T01:45:33;7.60;;;6.03;;
4971;SDS011;2501;51.214;6.768;2023-09-08T01:48:02;9.05;;;6.10;;
4971;SDS011;2501;51.214;6.768;2023-09-08T01:50:30;8.57;;;6.10;;
4971;SDS011;2501;51.214;6.768;2023-09-08T01:52:59;9.80;;;6.50;;
4971;SDS011;2501;51.214;6.768;2023-09-08T01:55:27;9.67;;;6.53;;
4971;SDS011;2501;51.214;6.768;2023-09-08T01:57:58;6.97;;;5.90;;
4971;SDS011;2501;51.214;6.768;2023-09-08T02:00:27;7.18;;;6.00;;
4971;SDS011;2501;51.214;6.768;2023-09-08T02:02:55;7.05;;;5.97;;
4971;SDS011;2501;51.214;6.768;2023-09-08T02:05:23;9.15;;;6.43;;
4971;SDS011;2501;51.214;6.768;2023-09-08T02:07:53;6.60;;;5.97;;
4971;SDS011;2501;51.214;6.768;2023-09-08T02:10:22;8.48;;;6.85;;
4971;SDS011;2501;51.214;6.768;2023-09-08T02:12:51;8.35;;;6.45;;
4971;SDS011;2501;51.214;6.768;2023-09-08T02:15:23;12.35;;;6.15;;
4971;SDS011;2501;51.214;6.768;2023-09-08T02:17:52;9.57;;;6.03;;
4971;SDS011;2501;51.214;6.768;2023-09-08T02:20:21;10.98;;;6.68;;
4971;SDS011;2501;51.214;6.768;2023-09-08T02:22:49;11.15;;;7.00;;
4971;SDS011;2501;51.214;6.768;2023-09-08T02:25:22;7.70;;;5.97;;
4971;SDS011;2501;51.214;6.768;2023-09-08T02:27:51;10.38;;;6.43;;
4971;SDS011;2501;51.214;6.768;2023-09-08T02:30:19;8.80;;;6.20;;
4971;SDS011;2501;51.214;6.768;2023-09-08T02:32:50;8.30;;;6.10;;
4971;SDS011;2501;51.214;6.768;2023-09-08T02:35:20;8.68;;;6.00;;
4971;SDS011;2501;51.214;6.768;2023-09-08T02:37:48;7.28;;;6.57;;
4971;SDS011;2501;51.214;6.768;2023-09-08T02:40:17;8.35;;;6.38;;
4971;SDS011;2501;51.214;6.768;2023-09-08T02:42:45;12.25;;;6.80;;
4971;SDS011;2501;51.214;6.768;2023-09-08T02:45:14;13.50;;;6.38;;
4971;SDS011;2501;51.214;6.768;2023-09-08T02:47:45;10.15;;;6.93;;
4971;SDS011;2501;51.214;6.768;2023-09-08T02:50:13;13.50;;;7.17;;
4971;SDS011;2501;51.214;6.768;2023-09-08T02:52:42;7.88;;;6.32;;
4971;SDS011;2501;51.214;6.768;2023-09-08T02:55:11;8.83;;;6.70;;
4971;SDS011;2501;51.214;6.768;2023-09-08T02:57:40;12.05;;;6.90;;
4971;SDS011;2501;51.214;6.768;2023-09-08T03:00:09;11.48;;;6.88;;
4971;SDS011;2501;51.214;6.768;2023-09-08T03:02:38;12.03;;;7.07;;
4971;SDS011;2501;51.214;6.768;2023-09-08T03:05:09;10.37;;;6.60;;
4971;SDS011;2501;51.214;6.768;2023-09-08T03:07:37;11.32;;;7.20;;
4971;SDS011;2501;51.214;6.768;2023-09-08T03:10:06;11.32;;;6.80;;
4971;SDS011;2501;51.214;6.768;2023-09-08T03:12:35;10.43;;;6.60;;
4971;SDS011;2501;51.214;6.768;2023-09-08T03:15:04;8.50;;;6.70;;
4971;SDS011;2501;51.214;6.768;2023-09-08T03:17:33;10.90;;;6.70;;
4971;SDS011;2501;51.214;6.768;2023-09-08T03:20:02;11.18;;;6.60;;
4971;SDS011;2501;51.214;6.768;2023-09-08T03:22:35;7.22;;;6.53;;
4971;SDS011;2501;51.214;6.768;2023-09-08T03:25:03;8.50;;;6.83;;
4971;SDS011;2501;51.214;6.768;2023-09-08T03:27:33;9.20;;;7.07;;
4971;SDS011;2501;51.214;6.768;2023-09-08T03:30:01;12.90;;;6.60;;
4971;SDS011;2501;51.214;6.768;2023-09-08T03:32:31;7.40;;;6.70;;
4971;SDS011;2501;51.214;6.768;2023-09-08T03:34:59;9.10;;;7.50;;
4971;SDS011;2501;51.214;6.768;2023-09-08T03:37:29;10.67;;;6.50;;
4971;SDS011;2501;51.214;6.768;2023-09-08T03:40:00;8.77;;;6.70;;
4971;SDS011;2501;51.214;6.768;2023-09-08T03:42:29;8.85;;;7.35;;
4971;SDS011;2501;51.214;6.768;2023-09-08T03:44:59;10.75;;;6.63;;
4971;SDS011;2501;51.214;6.768;2023-09-08T03:47:28;10.50;;;6.85;;
4971;SDS011;2501;51.214;6.768;2023-09-08T03:49:56;9.15;;;7.30;;
4971;SDS011;2501;51.214;6.768;2023-09-08T03:52:25;10.32;;;7.25;;
4971;SDS011;2501;51.214;6.768;2023-09-08T03:54:53;8.88;;;7.47;;
4971;SDS011;2501;51.214;6.768;2023-09-08T03:57:24;8.38;;;7.07;;
4971;SDS011;2501;51.214;6.768;2023-09-08T03:59:53;11.45;;;7.90;;
4971;SDS011;2501;51.214;6.768;2023-09-08T04:02:21;9.25;;;7.70;;
4971;SDS011;2501;51.214;6.768;2023-09-08T04:04:49;9.90;;;7.50;;
4971;SDS011;2501;51.214;6.768;2023-09-08T04:07:18;7.80;;;7.00;;
4971;SDS011;2501;51.214;6.768;2023-09-08T04:09:46;11.30;;;7.72;;
4971;SDS011;2501;51.214;6.768;2023-09-08T04:12:15;11.27;;;7.43;;
4971;SDS011;2501;51.214;6.768;2023-09-08T04:14:46;12.98;;;7.07;;
4971;SDS011;2501;51.214;6.768;2023-09-08T04:17:14;9.38;;;7.80;;
4971;SDS011;2501;51.214;6.768;2023-09-08T04:19:42;16.08;;;7.82;;
4971;SDS011;2501;51.214;6.768;2023-09-08T04:22:11;7.97;;;6.80;;
4971;SDS011;2501;51.214;6.768;2023-09-08T04:24:39;15.00;;;8.10;;
4971;SDS011;2501;51.214;6.768;2023-09-08T04:27:08;12.50;;;7.90;;
4971;SDS011;2501;51.214;6.768;2023-09-08T04:29:36;11.85;;;7.50;;
4971;SDS011;2501;51.214;6.768;2023-09-08T04:32:07;11.90;;;7.63;;
4971;SDS011;2501;51.214;6.768;2023-09-08T04:34:37;12.25;;;7.38;;
4971;SDS011;2501;51.214;6.768;2023-09-08T04:37:06;12.20;;;7.43;;
4971;SDS011;2501;51.214;6.768;2023-09-08T04:39:35;9.73;;;7.82;;
4971;SDS011;2501;51.214;6.768;2023-09-08T04:42:05;10.95;;;7.47;;
4971;SDS011;2501;51.214;6.768;2023-09-08T04:44:33;13.53;;;7.40;;
4971;SDS011;2501;51.214;6.768;2023-09-08T04:47:02;10.43;;;7.82;;
4971;SDS011;2501;51.214;6.768;2023-09-08T04:49:33;12.35;;;7.85;;
4971;SDS011;2501;51.214;6.768;2023-09-08T04:52:03;11.65;;;7.03;;
4971;SDS011;2501;51.214;6.768;2023-09-08T04:54:36;17.60;;;7.97;;
4971;SDS011;2501;51.214;6.768;2023-09-08T04:57:05;12.68;;;8.00;;
4971;SDS011;2501;51.214;6.768;2023-09-08T04:59:33;14.07;;;8.95;;
4971;SDS011;2501;51.214;6.768;2023-09-08T05:02:02;16.52;;;8.90;;
4971;SDS011;2501;51.214;6.768;2023-09-08T05:04:33;22.83;;;8.30;;
4971;SDS011;2501;51.214;6.768;2023-09-08T05:07:01;11.82;;;7.90;;
4971;SDS011;2501;51.214;6.768;2023-09-08T05:09:30;14.77;;;8.77;;
4971;SDS011;2501;51.214;6.768;2023-09-08T05:12:02;16.33;;;8.10;;
4971;SDS011;2501;51.214;6.768;2023-09-08T05:14:30;17.58;;;8.25;;
4971;SDS011;2501;51.214;6.768;2023-09-08T05:16:59;14.80;;;8.80;;
4971;SDS011;2501;51.214;6.768;2023-09-08T05:19:27;11.35;;;7.93;;
4971;SDS011;2501;51.214;6.768;2023-09-08T05:21:58;13.00;;;7.97;;
4971;SDS011;2501;51.214;6.768;2023-09-08T05:24:27;16.35;;;9.10;;
4971;SDS011;2501;51.214;6.768;2023-09-08T05:26:55;12.27;;;7.85;;
4971;SDS011;2501;51.214;6.768;2023-09-08T05:29:23;13.18;;;7.55;;
4971;SDS011;2501;51.214;6.768;2023-09-08T05:31:52;10.32;;;8.15;;
4971;SDS011;2501;51.214;6.768;2023-09-08T05:34:20;15.38;;;8.45;;
4971;SDS011;2501;51.214;6.768;2023-09-08T05:36:49;11.48;;;8.82;;
4971;SDS011;2501;51.214;6.768;2023-09-08T05:39:20;11.65;;;8.70;;
4971;SDS011;2501;51.214;6.768;2023-09-08T05:41:48;13.63;;;8.80;;
4971;SDS011;2501;51.214;6.768;2023-09-08T05:44:17;14.60;;;8.67;;
4971;SDS011;2501;51.214;6.768;2023-09-08T05:46:45;13.32;;;8.63;;
4971;SDS011;2501;51.214;6.768;2023-09-08T05:49:14;12.02;;;8.15;;
4971;SDS011;2501;51.214;6.768;2023-09-08T05:51:43;12.10;;;8.18;;
4971;SDS011;2501;51.214;6.768;2023-09-08T05:54:11;13.15;;;8.45;;
4971;SDS011;2501;51.214;6.768;2023-09-08T05:56:42;14.35;;;9.13;;
4971;SDS011;2501;51.214;6.768;2023-09-08T05:59:12;13.33;;;9.00;;
4971;SDS011;2501;51.214;6.768;2023-09-08T06:01:40;12.10;;;8.70;;
4971;SDS011;2501;51.214;6.768;2023-09-08T06:04:09;15.07;;;8.10;;
4971;SDS011;2501;51.214;6.768;2023-09-08T06:06:37;19.42;;;8.82;;
4971;SDS011;2501;51.214;6.768;2023-09-08T06:09:06;17.27;;;8.40;;
4971;SDS011;2501;51.214;6.768;2023-09-08T06:11:37;11.25;;;7.70;;
4971;SDS011;2501;51.214;6.768;2023-09-08T06:14:08;17.23;;;9.18;;
4971;SDS011;2501;51.214;6.768;2023-09-08T06:16:36;20.15;;;10.80;;
4971;SDS011;2501;51.214;6.768;2023-09-08T06:19:05;12.98;;;8.70;;
4971;SDS011;2501;51.214;6.768;2023-09-08T06:21:33;12.90;;;8.60;;
4971;SDS011;2501;51.214;6.768;2023-09-08T06:24:02;14.02;;;7.70;;
4971;SDS011;2501;51.214;6.768;2023-09-08T06:26:30;12.25;;;8.07;;
4971;SDS011;2501;51.214;6.768;2023-09-08T06:28:59;13.90;;;7.80;;
4971;SDS011;2501;51.214;6.768;2023-09-08T06:31:30;16.35;;;7.90;;
4971;SDS011;2501;51.214;6.768;2023-09-08T06:33:58;14.25;;;8.18;;
4971;SDS011;2501;51.214;6.768;2023-09-08T06:36:27;16.23;;;9.00;;
4971;SDS011;2501;51.214;6.768;2023-09-08T06:38:55;15.00;;;8.35;;
4971;SDS011;2501;51.214;6.768;2023-09-08T06:41:24;18.48;;;8.55;;
4971;SDS011;2501;51.214;6.768;2023-09-08T06:43:52;17.67;;;8.00;;
4971;SDS011;2501;51.214;6.768;2023-09-08T06:46:21;15.13;;;7.78;;
4971;SDS011;2501;51.214;6.768;2023-09-08T06:48:52;15.55;;;7.30;;
4971;SDS011;2501;51.214;6.768;2023-09-08T06:51:20;13.50;;;7.45;;
4971;SDS011;2501;51.214;6.768;2023-09-08T06:53:53;11.38;;;7.68;;
4971;SDS011;2501;51.214;6.768;2023-09-08T06:56:25;15.75;;;7.18;;
4971;SDS011;2501;51.214;6.768;2023-09-08T06:58:55;18.73;;;7.43;;
4971;SDS011;2501;51.214;6.768;2023-09-08T07:01:23;11.40;;;6.83;;
4971;SDS011;2501;51.214;6.768;2023-09-08T07:03:54;15.83;;;8.27;;
4971;SDS011;2501;51.214;6.768;2023-09-08T07:06:23;9.35;;;6.60;;
4971;SDS011;2501;51.214;6.768;2023-09-08T07:08:51;14.40;;;6.75;;
4971;SDS011;2501;51.214;6.768;2023-09-08T07:11:19;14.35;;;6.55;;
4971;SDS011;2501;51.214;6.768;2023-09-08T07:13:48;11.17;;;6.30;;
4971;SDS011;2501;51.214;6.768;2023-09-08T07:16:16;9.17;;;6.57;;
4971;SDS011;2501;51.214;6.768;2023-09-08T07:18:45;11.05;;;6.22;;
4971;SDS011;2501;51.214;6.768;2023-09-08T07:21:16;11.48;;;6.78;;
4971;SDS011;2501;51.214;6.768;2023-09-08T07:23:44;6.80;;;5.60;;
4971;SDS011;2501;51.214;6.768;2023-09-08T07:26:13;16.67;;;8.90;;
4971;SDS011;2501;51.214;6.768;2023-09-08T07:28:41;12.40;;;6.43;;
4971;SDS011;2501;51.214;6.768;2023-09-08T07:31:10;16.02;;;6.70;;
4971;SDS011;2501;51.214;6.768;2023-09-08T07:33:39;10.70;;;6.95;;
4971;SDS011;2501;51.214;6.768;2023-09-08T07:36:07;18.38;;;6.65;;
4971;SDS011;2501;51.214;6.768;2023-09-08T07:38:39;10.77;;;6.30;;
4971;SDS011;2501;51.214;6.768;2023-09-08T07:41:08;10.43;;;6.40;;
4971;SDS011;2501;51.214;6.768;2023-09-08T07:43:36;11.97;;;6.40;;
4971;SDS011;2501;51.214;6.768;2023-09-08T07:46:05;10.98;;;5.45;;
4971;SDS011;2501;51.214;6.768;2023-09-08T07:48:34;10.30;;;5.80;;
4971;SDS011;2501;51.214;6.768;2023-09-08T07:51:02;15.57;;;6.80;;
4971;SDS011;2501;51.214;6.768;2023-09-08T07:53:31;13.43;;;6.25;;
4971;SDS011;2501;51.214;6.768;2023-09-08T07:56:02;10.85;;;6.60;;
4971;SDS011;2501;51.214;6.768;2023-09-08T07:58:31;11.20;;;5.95;;
4971;SDS011;2501;51.214;6.768;2023-09-08T08:00:59;10.93;;;5.70;;
4971;SDS011;2501;51.214;6.768;2023-09-08T08:03:28;11.80;;;5.72;;
4971;SDS011;2501;51.214;6.768;2023-09-08T08:05:56;14.73;;;6.13;;
4971;SDS011;2501;51.214;6.768;2023-09-08T08:08:25;6.20;;;5.00;;
4971;SDS011;2501;51.214;6.768;2023-09-08T08:10:54;8.50;;;5.72;;
4971;SDS011;2501;51.214;6.768;2023-09-08T08:13:25;16.45;;;6.63;;
4971;SDS011;2501;51.214;6.768;2023-09-08T08:15:53;9.10;;;5.50;;
4971;SDS011;2501;51.214;6.768;2023-09-08T08:18:21;6.30;;;5.40;;
4971;SDS011;2501;51.214;6.768;2023-09-08T08:20:50;11.98;;;5.30;;
4971;SDS011;2501;51.214;6.768;2023-09-08T08:23:18;5.57;;;4.95;;
4971;SDS011;2501;51.214;6.768;2023-09-08T08:25:48;6.90;;;4.55;;
4971;SDS011;2501;51.214;6.768;2023-09-08T08:28:17;9.68;;;4.93;;
4971;SDS011;2501;51.214;6.768;2023-09-08T08:30:48;12.60;;;5.20;;
4971;SDS011;2501;51.214;6.768;2023-09-08T08:33:16;7.57;;;5.70;;
4971;SDS011;2501;51.214;6.768;2023-09-08T08:35:48;7.60;;;4.73;;
4971;SDS011;2501;51.214;6.768;2023-09-08T08:38:17;11.07;;;5.22;;
4971;SDS011;2501;51.214;6.768;2023-09-08T08:40:45;9.57;;;5.13;;
4971;SDS011;2501;51.214;6.768;2023-09-08T08:43:14;5.93;;;5.30;;
4971;SDS011;2501;51.214;6.768;2023-09-08T08:45:42;6.55;;;5.15;;
4971;SDS011;2501;51.214;6.768;2023-09-08T08:48:15;7.70;;;5.20;;
4971;SDS011;2501;51.214;6.768;2023-09-08T08:50:46;12.13;;;5.30;;
4971;SDS011;2501;51.214;6.768;2023-09-08T08:53:15;11.88;;;5.60;;
4971;SDS011;2501;51.214;6.768;2023-09-08T08:55:45;7.60;;;5.35;;
4971;SDS011;2501;51.214;6.768;2023-09-08T08:58:14;7.97;;;5.80;;
4971;SDS011;2501;51.214;6.768;2023-09-08T09:00:46;5.22;;;4.72;;
4971;SDS011;2501;51.214;6.768;2023-09-08T09:03:17;8.02;;;5.80;;
4971;SDS011;2501;51.214;6.768;2023-09-08T09:05:45;9.15;;;5.88;;
4971;SDS011;2501;51.214;6.768;2023-09-08T09:08:17;8.32;;;6.00;;
4971;SDS011;2501;51.214;6.768;2023-09-08T09:10:47;9.65;;;6.25;;
4971;SDS011;2501;51.214;6.768;2023-09-08T09:13:15;7.90;;;5.40;;
4971;SDS011;2501;51.214;6.768;2023-09-08T09:15:44;7.70;;;5.40;;
4971;SDS011;2501;51.214;6.768;2023-09-08T09:18:16;18.92;;;11.57;;
4971;SDS011;2501;51.214;6.768;2023-09-08T09:20:53;6.63;;;5.00;;
4971;SDS011;2501;51.214;6.768;2023-09-08T09:23:28;9.60;;;5.30;;
4971;SDS011;2501;51.214;6.768;2023-09-08T09:25:57;8.32;;;5.57;;
4971;SDS011;2501;51.214;6.768;2023-09-08T09:28:28;8.60;;;5.30;;
4971;SDS011;2501;51.214;6.768;2023-09-08T09:30:56;7.32;;;5.70;;
4971;SDS011;2501;51.214;6.768;2023-09-08T09:33:28;7.80;;;5.40;;
4971;SDS011;2501;51.214;6.768;2023-09-08T09:35:58;14.50;;;5.60;;
4971;SDS011;2501;51.214;6.768;2023-09-08T09:38:27;7.53;;;5.03;;
4971;SDS011;2501;51.214;6.768;2023-09-08T09:40:56;8.98;;;5.15;;
4971;SDS011;2501;51.214;6.768;2023-09-08T09:43:24;12.98;;;5.07;;
4971;SDS011;2501;51.214;6.768;2023-09-08T09:45:57;6.30;;;5.40;;
4971;SDS011;2501;51.214;6.768;2023-09-08T09:48:25;6.50;;;5.23;;
4971;SDS011;2501;51.214;6.768;2023-09-08T09:50:58;8.65;;;5.63;;
4971;SDS011;2501;51.214;6.768;2023-09-08T09:53:42;12.03;;;6.43;;
4971;SDS011;2501;51.214;6.768;2023-09-08T09:56:13;10.02;;;6.60;;
4971;SDS011;2501;51.214;6.768;2023-09-08T09:58:43;6.72;;;5.30;;
4971;SDS011;2501;51.214;6.768;2023-09-08T10:01:12;6.25;;;5.60;;
4971;SDS011;2501;51.214;6.768;2023-09-08T10:03:44;8.75;;;6.43;;
4971;SDS011;2501;51.214;6.768;2023-09-08T10:06:14;6.45;;;4.90;;
4971;SDS011;2501;51.214;6.768;2023-09-08T10:08:42;11.82;;;6.07;;
4971;SDS011;2501;51.214;6.768;2023-09-08T10:11:11;6.10;;;5.10;;
4971;SDS011;2501;51.214;6.768;2023-09-08T10:13:42;7.75;;;5.15;;
4971;SDS011;2501;51.214;6.768;2023-09-08T10:16:15;10.18;;;5.20;;
4971;SDS011;2501;51.214;6.768;2023-09-08T10:18:49;6.35;;;5.45;;
4971;SDS011;2501;51.214;6.768;2023-09-08T10:21:20;5.43;;;4.93;;
4971;SDS011;2501;51.214;6.768;2023-09-08T10:23:52;8.75;;;5.88;;
4971;SDS011;2501;51.214;6.768;2023-09-08T10:26:26;7.18;;;5.65;;
4971;SDS011;2501;51.214;6.768;2023-09-08T10:28:56;7.15;;;5.80;;
4971;SDS011;2501;51.214;6.768;2023-09-08T10:31:25;8.20;;;5.80;;
4971;SDS011;2501;51.214;6.768;2023-09-08T10:33:57;12.02;;;8.05;;
4971;SDS011;2501;51.214;6.768;2023-09-08T10:36:27;9.53;;;6.47;;
4971;SDS011;2501;51.214;6.768;2023-09-08T10:39:12;8.15;;;6.90;;
4971;SDS011;2501;51.214;6.768;2023-09-08T10:44:57;7.40;;;5.43;;
4971;SDS011;2501;51.214;6.768;2023-09-08T10:47:30;7.63;;;6.20;;
4971;SDS011;2501;51.214;6.768;2023-09-08T10:50:04;9.85;;;5.72;;
4971;SDS011;2501;51.214;6.768;2023-09-08T10:52:34;7.97;;;5.93;;
4971;SDS011;2501;51.214;6.768;2023-09-08T10:55:03;6.10;;;5.60;;
4971;SDS011;2501;51.214;6.768;2023-09-08T10:57:32;8.02;;;5.30;;
4971;SDS011;2501;51.214;6.768;2023-09-08T11:00:02;8.00;;;5.43;;
4971;SDS011;2501;51.214;6.768;2023-09-08T11:02:37;7.35;;;6.40;;
4971;SDS011;2501;51.214;6.768;2023-09-08T11:05:10;7.40;;;5.40;;
4971;SDS011;2501;51.214;6.768;2023-09-08T11:07:41;7.45;;;5.20;;
4971;SDS011;2501;51.214;6.768;2023-09-08T11:10:11;10.40;;;5.70;;
4971;SDS011;2501;51.214;6.768;2023-09-08T11:12:40;10.68;;;5.65;;
4971;SDS011;2501;51.214;6.768;2023-09-08T11:15:09;13.85;;;8.85;;
4971;SDS011;2501;51.214;6.768;2023-09-08T11:17:38;8.20;;;5.90;;
4971;SDS011;2501;51.214;6.768;2023-09-08T11:20:10;6.15;;;5.50;;
4971;SDS011;2501;51.214;6.768;2023-09-08T11:22:39;6.78;;;5.70;;
4971;SDS011;2501;51.214;6.768;2023-09-08T11:25:08;8.67;;;5.90;;
4971;SDS011;2501;51.214;6.768;2023-09-08T11:27:38;9.50;;;6.07;;
4971;SDS011;2501;51.214;6.768;2023-09-08T11:30:07;8.80;;;6.20;;
4971;SDS011;2501;51.214;6.768;2023-09-08T11:32:36;5.45;;;4.65;;
4971;SDS011;2501;51.214;6.768;2023-09-08T11:35:05;11.47;;;6.00;;
4971;SDS011;2501;51.214;6.768;2023-09-08T11:37:39;5.97;;;5.15;;
4971;SDS011;2501;51.214;6.768;2023-09-08T11:40:08;9.05;;;4.95;;
4971;SDS011;2501;51.214;6.768;2023-09-08T11:42:39;12.63;;;5.78;;
4971;SDS011;2501;51.214;6.768;2023-09-08T11:45:10;21.05;;;7.72;;
4971;SDS011;2501;51.214;6.768;2023-09-08T11:47:40;6.43;;;5.83;;
4971;SDS011;2501;51.214;6.768;2023-09-08T11:50:10;19.45;;;6.50;;
4971;SDS011;2501;51.214;6.768;2023-09-08T11:52:44;9.38;;;5.70;;
4971;SDS011;2501;51.214;6.768;2023-09-08T11:55:13;15.07;;;6.30;;
4971;SDS011;2501;51.214;6.768;2023-09-08T11:57:43;22.70;;;9.83;;
4971;SDS011;2501;51.214;6.768;2023-09-08T12:00:14;12.40;;;5.82;;
4971;SDS011;2501;51.214;6.768;2023-09-08T12:02:44;10.10;;;5.63;;
4971;SDS011;2501;51.214;6.768;2023-09-08T12:05:13;14.25;;;6.35;;
4971;SDS011;2501;51.214;6.768;2023-09-08T12:07:50;18.77;;;8.55;;
4971;SDS011;2501;51.214;6.768;2023-09-08T12:10:20;8.55;;;6.25;;
4971;SDS011;2501;51.214;6.768;2023-09-08T12:12:50;13.50;;;6.15;;
4971;SDS011;2501;51.214;6.768;2023-09-08T12:15:29;12.73;;;7.53;;
4971;SDS011;2501;51.214;6.768;2023-09-08T12:17:59;6.63;;;5.90;;
4971;SDS011;2501;51.214;6.768;2023-09-08T12:20:29;5.97;;;5.10;;
4971;SDS011;2501;51.214;6.768;2023-09-08T12:23:00;10.88;;;6.60;;
4971;SDS011;2501;51.214;6.768;2023-09-08T12:25:29;7.10;;;5.45;;
4971;SDS011;2501;51.214;6.768;2023-09-08T12:28:00;8.93;;;6.20;;
4971;SDS011;2501;51.214;6.768;2023-09-08T12:30:29;7.40;;;5.70;;
4971;SDS011;2501;51.214;6.768;2023-09-08T12:33:00;6.03;;;5.43;;
4971;SDS011;2501;51.214;6.768;2023-09-08T12:35:29;9.02;;;5.40;;
4971;SDS011;2501;51.214;6.768;2023-09-08T12:38:01;8.82;;;5.93;;
4971;SDS011;2501;51.214;6.768;2023-09-08T12:40:33;8.73;;;7.53;;
4971;SDS011;2501;51.214;6.768;2023-09-08T12:43:03;9.95;;;6.05;;
4971;SDS011;2501;51.214;6.768;2023-09-08T12:45:32;7.85;;;6.18;;
4971;SDS011;2501;51.214;6.768;2023-09-08T12:48:01;7.83;;;5.60;;
4971;SDS011;2501;51.214;6.768;2023-09-08T12:50:32;15.02;;;6.30;;
4971;SDS011;2501;51.214;6.768;2023-09-08T12:53:03;11.27;;;5.75;;
4971;SDS011;2501;51.214;6.768;2023-09-08T12:55:32;10.95;;;5.90;;
4971;SDS011;2501;51.214;6.768;2023-09-08T12:58:00;10.82;;;5.82;;
4971;SDS011;2501;51.214;6.768;2023-09-08T13:00:29;7.80;;;5.60;;
4971;SDS011;2501;51.214;6.768;2023-09-08T13:02:57;8.50;;;5.47;;
4971;SDS011;2501;51.214;6.768;2023-09-08T13:05:27;9.00;;;5.72;;
4971;SDS011;2501;51.214;6.768;2023-09-08T13:07:56;8.27;;;5.60;;
4971;SDS011;2501;51.214;6.768;2023-09-08T13:10:27;16.00;;;5.50;;
4971;SDS011;2501;51.214;6.768;2023-09-08T13:12:55;10.85;;;5.85;;
4971;SDS011;2501;51.214;6.768;2023-09-08T13:15:24;5.38;;;4.88;;
4971;SDS011;2501;51.214;6.768;2023-09-08T13:17:52;9.82;;;5.07;;
4971;SDS011;2501;51.214;6.768;2023-09-08T13:20:21;9.88;;;5.50;;
4971;SDS011;2501;51.214;6.768;2023-09-08T13:22:49;7.37;;;5.50;;
4971;SDS011;2501;51.214;6.768;2023-09-08T13:25:18;10.65;;;5.15;;
4971;SDS011;2501;51.214;6.768;2023-09-08T13:27:49;15.68;;;6.30;;
4971;SDS011;2501;51.214;6.768;2023-09-08T13:30:17;9.50;;;5.88;;
4971;SDS011;2501;51.214;6.768;2023-09-08T13:32:47;9.27;;;5.70;;
4971;SDS011;2501;51.214;6.768;2023-09-08T13:35:16;8.02;;;5.88;;
4971;SDS011;2501;51.214;6.768;2023-09-08T13:37:44;6.57;;;5.72;;
4971;SDS011;2501;51.214;6.768;2023-09-08T13:40:13;8.77;;;5.50;;
4971;SDS011;2501;51.214;6.768;2023-09-08T13:42:41;11.00;;;6.53;;
4971;SDS011;2501;51.214;6.768;2023-09-08T13:45:12;9.35;;;5.13;;
4971;SDS011;2501;51.214;6.768;2023-09-08T13:47:41;8.23;;;4.68;;
4971;SDS011;2501;51.214;6.768;2023-09-08T13:50:09;11.25;;;5.88;;
4971;SDS011;2501;51.214;6.768;2023-09-08T13:52:38;11.23;;;4.97;;
4971;SDS011;2501;51.214;6.768;2023-09-08T13:55:07;5.60;;;5.10;;
4971;SDS011;2501;51.214;6.768;2023-09-08T13:57:36;6.70;;;5.72;;
4971;SDS011;2501;51.214;6.768;2023-09-08T14:00:05;6.30;;;4.80;;
4971;SDS011;2501;51.214;6.768;2023-09-08T14:02:39;5.00;;;4.60;;
4971;SDS011;2501;51.214;6.768;2023-09-08T14:05:07;7.57;;;5.07;;
4971;SDS011;2501;51.214;6.768;2023-09-08T14:07:36;5.60;;;4.57;;
4971;SDS011;2501;51.214;6.768;2023-09-08T14:10:05;9.68;;;5.10;;
4971;SDS011;2501;51.214;6.768;2023-09-08T14:12:34;4.95;;;4.45;;
4971;SDS011;2501;51.214;6.768;2023-09-08T14:15:03;6.75;;;4.28;;
4971;SDS011;2501;51.214;6.768;2023-09-08T14:17:32;5.80;;;4.75;;
4971;SDS011;2501;51.214;6.768;2023-09-08T14:20:04;8.57;;;5.03;;
4971;SDS011;2501;51.214;6.768;2023-09-08T14:22:33;9.80;;;4.85;;
4971;SDS011;2501;51.214;6.768;2023-09-08T14:25:03;7.95;;;4.55;;
4971;SDS011;2501;51.214;6.768;2023-09-08T14:27:32;5.28;;;4.70;;
4971;SDS011;2501;51.214;6.768;2023-09-08T14:30:02;6.75;;;5.03;;
4971;SDS011;2501;51.214;6.768;2023-09-08T14:32:31;4.50;;;4.20;;
4971;SDS011;2501;51.214;6.768;2023-09-08T14:34:59;6.50;;;4.50;;
4971;SDS011;2501;51.214;6.768;2023-09-08T14:37:30;5.20;;;4.40;;
4971;SDS011;2501;51.214;6.768;2023-09-08T14:39:58;9.30;;;4.80;;
4971;SDS011;2501;51.214;6.768;2023-09-08T14:42:27;7.95;;;4.53;;
4971;SDS011;2501;51.214;6.768;2023-09-08T14:44:56;10.50;;;4.53;;
4971;SDS011;2501;51.214;6.768;2023-09-08T14:47:24;7.55;;;4.72;;
4971;SDS011;2501;51.214;6.768;2023-09-08T14:49:53;8.45;;;4.75;;
4971;SDS011;2501;51.214;6.768;2023-09-08T14:52:21;8.50;;;4.30;;
4971;SDS011;2501;51.214;6.768;2023-09-08T14:54:53;8.68;;;5.07;;
4971;SDS011;2501;51.214;6.768;2023-09-08T14:57:21;5.47;;;4.80;;
4971;SDS011;2501;51.214;6.768;2023-09-08T14:59:49;10.60;;;4.88;;
4971;SDS011;2501;51.214;6.768;2023-09-08T15:02:21;7.55;;;4.55;;
4971;SDS011;2501;51.214;6.768;2023-09-08T15:04:50;5.68;;;4.57;;
4971;SDS011;2501;51.214;6.768;2023-09-08T15:07:18;7.18;;;4.80;;
4971;SDS011;2501;51.214;6.768;2023-09-08T15:09:47;9.80;;;5.00;;
4971;SDS011;2501;51.214;6.768;2023-09-08T15:12:18;5.07;;;3.90;;
4971;SDS011;2501;51.214;6.768;2023-09-08T15:14:47;8.73;;;4.90;;
4971;SDS011;2501;51.214;6.768;2023-09-08T15:17:15;9.13;;;5.10;;
4971;SDS011;2501;51.214;6.768;2023-09-08T15:19:44;7.63;;;4.70;;
4971;SDS011;2501;51.214;6.768;2023-09-08T15:22:12;6.38;;;4.65;;
4971;SDS011;2501;51.214;6.768;2023-09-08T15:24:41;9.07;;;5.05;;
4971;SDS011;2501;51.214;6.768;2023-09-08T15:27:09;5.88;;;4.28;;
4971;SDS011;2501;51.214;6.768;2023-09-08T15:29:40;10.07;;;4.53;;